Weather History for Pittsburg, KS

Change the Weather History Date:

Sunday, February 17, 2013

  Actual Average (KJLN) Record (KJLN)
Temperature  
Mean Temperature 48 °F 40 °F  
Max Temperature 63 °F 51 °F 74 °F (2011)
Min Temperature 32 °F 30 °F 4 °F (1993)
Degree Days  
Heating Degree Days 18 25  
Month to date heating degree days 455  
Since 1 July heating degree days 3004  
Cooling Degree Days 0 0  
Month to date cooling degree days 0  
Year to date cooling degree days 0  
Moisture  
Dew Point 26 °F    
Average Humidity 44    
Maximum Humidity 61    
Minimum Humidity 29    
Precipitation  
Precipitation 0.00 in 0.09 in 0.63 in (1961)
Month to date precipitation 1.31  
Year to date precipitation 3.34  
Sea Level Pressure  
Sea Level Pressure 29.92 in    
Wind  
Wind Speed 10 mph (SSW)    
Max Wind Speed 18 mph    
Max Gust Speed 25 mph    
Visibility 10 miles    
Events      
T = Trace of Precipitation, MM = Missing Value Source: NWS Daily Summary

Daily Weather History Graph

Daily Weather History Graph

Search for Another Location

Airport:

Trip Planner

Search our weather history database for the weather conditions in past years. The results will help you decide how hot, cold, wet, or windy it might be!

Date:

Astronomy

Feb. 17, 2013 Rise Set
Actual Time 7:05 AM CST 6:00 PM CST
Civil Twilight 6:38 AM CST 6:27 PM CST
Nautical Twilight 6:08 AM CST 6:58 PM CST
Astronomical Twilight 5:38 AM CST 7:28 PM CST
Moon 11:08 AM CST 12:47 AM CST
Length of Visible Light 11h 48m
Length of Day
10h 55m
Waxing Crescent, 49% of the Moon is Illuminated
Feb 17
Waxing Crescent
Feb 17
First Quarter
Feb 25
Full
Mar 4
Last Quarter
Mar 11
New

Hourly Weather History & Observations

Time (CST) Temp. Windchill Dew Point Humidity Pressure Visibility Wind Dir Wind Speed Gust Speed Precip Events Conditions
12:15 AM 35.6 °F 29.2 °F 18.5 °F 50% 30.08 in 10.0 mi South 8.1 mph - N/A   Mostly Cloudy
12:35 AM 35.6 °F 29.9 °F 18.9 °F 51% 30.08 in 10.0 mi South 6.9 mph - N/A   Scattered Clouds
12:55 AM 35.6 °F 28.6 °F 18.9 °F 51% 30.07 in 10.0 mi South 9.2 mph - N/A   Scattered Clouds
1:15 AM 35.6 °F 28.6 °F 17.8 °F 48% 30.07 in 10.0 mi South 9.2 mph - N/A   Scattered Clouds
1:35 AM 35.6 °F 29.2 °F 17.8 °F 48% 30.06 in 10.0 mi South 8.1 mph - N/A   Clear
1:55 AM 35.6 °F 29.2 °F 18.0 °F 49% 30.06 in 10.0 mi South 8.1 mph - N/A   Clear
2:15 AM 35.6 °F 29.2 °F 17.4 °F 48% 30.05 in 10.0 mi South 8.1 mph - N/A   Clear
2:35 AM 35.6 °F 29.2 °F 17.6 °F 48% 30.05 in 10.0 mi South 8.1 mph - N/A   Clear
2:55 AM 35.6 °F 29.2 °F 17.4 °F 48% 30.05 in 10.0 mi South 8.1 mph - N/A   Clear
3:15 AM 35.6 °F 29.9 °F 17.6 °F 48% 30.05 in 10.0 mi South 6.9 mph - N/A   Clear
3:35 AM 35.4 °F 29.7 °F 18.0 °F 49% 30.04 in 10.0 mi South 6.9 mph - N/A   Clear
3:55 AM 35.2 °F 30.3 °F 18.1 °F 50% 30.04 in 10.0 mi South 5.8 mph - N/A   Clear
4:15 AM 33.3 °F 27.9 °F 17.1 °F 51% 30.03 in 10.0 mi South 5.8 mph - N/A   Clear
4:35 AM 33.3 °F 27.1 °F 17.6 °F 53% 30.03 in 10.0 mi SSW 6.9 mph - N/A   Clear
4:55 AM 32.9 °F 26.7 °F 18.3 °F 55% 30.03 in 10.0 mi SSW 6.9 mph - N/A   Clear
5:15 AM 32.9 °F 27.5 °F 19.0 °F 57% 30.04 in 10.0 mi SSW 5.8 mph - N/A   Clear
5:35 AM 34.3 °F 27.7 °F 20.3 °F 57% 30.03 in 10.0 mi South 8.1 mph - N/A   Clear
5:55 AM 34.9 °F 29.0 °F 20.8 °F 57% 30.04 in 10.0 mi SSW 6.9 mph - N/A   Clear
6:15 AM 34.0 °F 28.8 °F 20.1 °F 57% 30.03 in 10.0 mi SSW 5.8 mph - N/A   Clear
6:35 AM 33.3 °F 27.1 °F 20.1 °F 59% 30.02 in 10.0 mi SSW 6.9 mph - N/A   Clear
6:55 AM 32.9 °F 25.9 °F 20.3 °F 60% 30.02 in 10.0 mi SSW 8.1 mph - N/A   Clear
7:15 AM 34.2 °F 26.8 °F 21.9 °F 61% 30.02 in 10.0 mi South 9.2 mph - N/A   Clear
7:35 AM 35.6 °F 28.6 °F 22.8 °F 60% 30.01 in 10.0 mi SSW 9.2 mph - N/A   Clear
7:55 AM 35.6 °F 28.6 °F 22.3 °F 58% 30.01 in 10.0 mi SSW 9.2 mph - N/A   Clear
8:15 AM 37.2 °F 29.1 °F 22.8 °F 56% 30.01 in 10.0 mi SSW 12.7 mph - N/A   Clear
8:35 AM 38.5 °F 30.7 °F 23.4 °F 55% 30.01 in 10.0 mi SSW 12.7 mph 18.4 mph N/A   Clear
8:55 AM 40.3 °F 32.2 °F 24.6 °F 54% 30.01 in 10.0 mi SSW 15.0 mph 18.4 mph N/A   Clear
9:15 AM 41.7 °F 34.4 °F 25.5 °F 53% 30.00 in 10.0 mi SSW 13.8 mph 19.6 mph N/A   Clear
9:35 AM 43.7 °F 36.0 °F 26.6 °F 51% 29.99 in 10.0 mi SSW 17.3 mph 25.3 mph N/A   Clear
9:55 AM 46.0 °F 39.3 °F 28.6 °F 51% 29.99 in 10.0 mi SSW 16.1 mph 21.9 mph N/A   Clear
10:15 AM 47.8 °F - 29.1 °F 48% 29.99 in 10.0 mi SSW 18.4 mph - N/A   Clear
10:35 AM 48.7 °F - 29.8 °F 48% 29.99 in 10.0 mi SSW 16.1 mph 23.0 mph N/A   Clear
10:55 AM 50.9 °F - 30.7 °F 46% 29.98 in 10.0 mi SSW 13.8 mph - N/A   Clear
11:15 AM 50.9 °F - 29.7 °F 44% 29.97 in 10.0 mi SSW 15.0 mph - N/A   Clear
11:35 AM 51.4 °F - 29.3 °F 43% 29.96 in 10.0 mi SSW 13.8 mph 18.4 mph N/A   Clear
11:55 AM 52.5 °F - 31.3 °F 44% 29.95 in 10.0 mi SSW 13.8 mph - N/A   Clear
12:15 PM 54.0 °F - 32.5 °F 44% 29.93 in 10.0 mi SSW 11.5 mph - N/A   Clear
12:35 PM 55.8 °F - 32.0 °F 41% 29.93 in 10.0 mi South 13.8 mph - N/A   Clear
12:55 PM 55.8 °F - 30.7 °F 39% 29.91 in 10.0 mi SSW 10.4 mph - N/A   Clear
1:15 PM 56.3 °F - 31.1 °F 38% 29.90 in 10.0 mi South 11.5 mph - N/A   Clear
1:35 PM 58.1 °F - 31.6 °F 37% 29.88 in 10.0 mi SSW 12.7 mph - N/A   Clear
1:55 PM 59.0 °F - 31.5 °F 35% 29.87 in 10.0 mi South 12.7 mph 18.4 mph N/A   Clear
2:15 PM 60.8 °F - 31.8 °F 34% 29.87 in 10.0 mi South 12.7 mph - N/A   Clear
2:35 PM 61.2 °F - 32.9 °F 35% 29.86 in 10.0 mi SW 15.0 mph 19.6 mph N/A   Clear
2:55 PM 61.3 °F - 32.4 °F 34% 29.84 in 10.0 mi SSW 12.7 mph 18.4 mph N/A   Clear
3:15 PM 61.9 °F - 31.1 °F 31% 29.84 in 10.0 mi South 13.8 mph - N/A   Clear
3:35 PM 62.1 °F - 31.1 °F 31% 29.82 in 10.0 mi SSW 11.5 mph - N/A   Clear
3:55 PM 62.8 °F - 30.7 °F 30% 29.82 in 10.0 mi South 15.0 mph 20.7 mph N/A   Clear
4:15 PM 62.8 °F - 30.2 °F 29% 29.81 in 10.0 mi SSW 13.8 mph 17.3 mph N/A   Clear
4:35 PM 63.1 °F - 30.7 °F 30% 29.81 in 10.0 mi SSW 16.1 mph 19.6 mph N/A   Clear
4:55 PM 62.1 °F - 30.2 °F 30% 29.81 in 10.0 mi South 12.7 mph - N/A   Clear
5:15 PM 61.2 °F - 30.4 °F 31% 29.80 in 10.0 mi South 11.5 mph - N/A   Clear
5:35 PM 60.8 °F - 30.7 °F 32% 29.79 in 10.0 mi South 9.2 mph - N/A   Clear
5:55 PM 60.8 °F - 31.5 °F 33% 29.79 in - South 10.4 mph - N/A   Clear
6:15 PM 59.0 °F - 30.6 °F 34% 29.79 in - South 10.4 mph - N/A   Clear
6:35 PM 58.3 °F - 30.7 °F 35% 29.79 in - South 9.2 mph - N/A   Clear
6:55 PM 57.0 °F - 30.7 °F 37% 29.78 in - South 9.2 mph - N/A   Clear
7:15 PM 56.7 °F - 30.6 °F 37% 29.78 in - South 6.9 mph - N/A   Clear
7:35 PM 55.8 °F - 30.7 °F 39% 29.78 in - South 6.9 mph - N/A   Clear
7:55 PM 55.8 °F - 31.8 °F 40% 29.77 in - South 9.2 mph - N/A   Clear
8:15 PM 55.8 °F - 30.6 °F 38% 29.77 in - South 11.5 mph - N/A   Clear
8:35 PM 55.8 °F - 29.5 °F 37% 29.77 in - South 12.7 mph - N/A   Clear
8:55 PM 55.9 °F - 28.9 °F 36% 29.77 in - South 15.0 mph 19.6 mph N/A   Clear
9:15 PM 55.9 °F - 28.9 °F 36% 29.77 in - South 15.0 mph - N/A   Clear
9:35 PM 55.8 °F - 29.3 °F 36% 29.77 in - South 15.0 mph 23.0 mph N/A   Clear
9:55 PM 55.8 °F - 29.8 °F 37% 29.77 in - South 18.4 mph 24.2 mph N/A   Clear
10:15 PM 55.8 °F - 30.2 °F 38% 29.77 in 10.0 mi SSW 16.1 mph 23.0 mph N/A   Clear
10:35 PM 55.8 °F - 30.4 °F 38% 29.77 in 10.0 mi SSW 15.0 mph 20.7 mph N/A   Clear
10:55 PM 55.8 °F - 30.9 °F 39% 29.75 in 10.0 mi SSW 15.0 mph 20.7 mph N/A   Clear
11:15 PM 55.8 °F - 30.9 °F 39% 29.75 in 10.0 mi South 15.0 mph 21.9 mph N/A   Clear
11:35 PM 55.8 °F - 30.9 °F 39% 29.74 in 10.0 mi SSW 15.0 mph 21.9 mph N/A   Clear
11:55 PM 55.8 °F - 30.6 °F 38% 29.73 in 10.0 mi SSW 18.4 mph - N/A   Clear